Airfield :
LOGIN :

Register | Disclaimer

   EN    FR    IT 

 










Legend :    VFR   Marginal VFR   IFR   Intensive IFR   Very Intensive IFR
Visi :
Ceiling :
>= 8 km
>= 3000ft
5 to 8 km
1000 to 3000 ft
1500m to 5 km
500 to 1000 ft
800 to 1500m
200 to 500 ft
< 800m
< 200 ft
Symbols :   Thunderstorms  Fog  Heavy snow  Heavy precipitations  Wind > 20 kt
SIGMETs :     Misc.  Thunderstorms  Icing  Turbulence  Mountain Waves  Volcanic Ashes






- Airport Elevation : 464 ft
- IATA code : EVX


LFOE - Evreux

CURRENT METAR :
  • 070900Z AUTO 10008KT 060V130 CAVOK 30/10 Q1018 NOSIG

EXPIRED METARs :
  • 070830Z AUTO 08005KT 050V120 CAVOK 28/11 Q1019 NOSIG
  • 070800Z AUTO 11004KT 050V140 CAVOK 27/12 Q1019 NOSIG
  • 070730Z AUTO 10003KT 060V150 CAVOK 26/11 Q1019 NOSIG
  • 070700Z AUTO 08004KT CAVOK 25/11 Q1019 NOSIG
  • 070630Z AUTO 07003KT CAVOK 23/11 Q1018 NOSIG

TAF TAF LFOE
Valid from the 07 at 09:00 until the 08 at 09:00 UTC


070800Z 0709/0809 11005KT CAVOK



MET'MAP, your aeronautical weather chart ! - Copyright ORBIFLY December 2007 - Disclaimer

ORBIFLY MET'MAP TEAM :

Programming & Development : Alexandra Zaïnal
Concept & original design : Baudouin d'Aumeries
Assistance for programming : Marc-Olivier Méhu
Technical & hardware support : Manuel Goepfert

Contact : metmap@orbifly.com




SOURCES & CREDITS :

   NOAA